Time;durP1;ratioP1;P1;durP2;ratioP2;P2;SDS_P1;SDS_P2;PMS_P1;PMS_P2;Temp;Humidity;BMP_temperature;BMP_pressure;BME280_temperature;BME280_humidity;BME280_pressure;Samples;Min_cycle;Max_cycle;Signal;HPM_P1;HPM_P2
2021/07/27 00:01:07;;;;;;;5.30;4.40;;;16.40;99.90;;;;;;5072525;28;20212;-47
2021/07/27 00:03:37;;;;;;;5.10;4.20;;;16.40;99.90;;;;;;5072650;28;20397;-51
2021/07/27 00:06:07;;;;;;;7.68;4.10;;;16.40;99.90;;;;;;5072547;28;20223;-46
2021/07/27 00:08:36;;;;;;;5.47;4.95;;;16.40;99.90;;;;;;5072216;28;20711;-49
2021/07/27 00:11:05;;;;;;;7.95;4.63;;;16.40;99.90;;;;;;5072218;28;20243;-46
2021/07/27 00:13:34;;;;;;;5.90;4.50;;;16.40;99.90;;;;;;5072106;28;20700;-48
2021/07/27 00:16:02;;;;;;;5.82;4.35;;;16.40;99.90;;;;;;5072134;28;20257;-48
2021/07/27 00:18:31;;;;;;;8.45;4.88;;;16.40;99.90;;;;;;5072002;28;20334;-48
2021/07/27 00:21:00;;;;;;;7.00;4.97;;;16.40;99.90;;;;;;5072201;28;20221;-48
2021/07/27 00:23:29;;;;;;;7.55;5.38;;;16.40;99.90;;;;;;5072296;28;20207;-46
2021/07/27 00:25:58;;;;;;;5.18;4.68;;;16.50;99.90;;;;;;5072073;28;20230;-48
2021/07/27 00:28:26;;;;;;;6.40;4.95;;;16.40;99.90;;;;;;5072091;28;20235;-46
2021/07/27 00:30:54;;;;;;;6.10;5.45;;;16.40;99.90;;;;;;5072213;28;20286;-48
2021/07/27 00:33:22;;;;;;;10.52;6.65;;;16.50;99.90;;;;;;5072214;28;20307;-46
2021/07/27 00:35:50;;;;;;;5.75;4.32;;;16.50;99.90;;;;;;5072384;28;20231;-47
2021/07/27 00:38:22;;;;;;;4.75;4.00;;;16.40;99.90;;;;;;5072054;28;20298;-48
2021/07/27 00:40:51;;;;;;;4.82;4.07;;;16.50;99.90;;;;;;5071810;28;20211;-49
2021/07/27 00:43:20;;;;;;;6.95;4.25;;;16.50;99.90;;;;;;5071825;28;20577;-46
2021/07/27 00:45:48;;;;;;;6.15;4.65;;;16.40;99.90;;;;;;5072083;28;20295;-45
2021/07/27 00:48:16;;;;;;;9.48;5.05;;;16.40;99.90;;;;;;5071935;28;20238;-46
2021/07/27 00:50:44;;;;;;;5.10;4.60;;;16.40;99.90;;;;;;5071774;28;20692;-47
2021/07/27 00:53:14;;;;;;;5.88;5.28;;;16.40;99.90;;;;;;5070872;28;20736;-49
2021/07/27 00:55:42;;;;;;;6.57;5.68;;;16.40;99.90;;;;;;5071708;28;20218;-50
2021/07/27 00:58:12;;;;;;;6.93;5.80;;;16.40;99.90;;;;;;5071909;28;20642;-47
2021/07/27 01:00:39;;;;;;;7.25;5.03;;;16.40;99.90;;;;;;5071923;28;20298;-48
2021/07/27 01:03:07;;;;;;;10.45;5.40;;;16.40;99.90;;;;;;5071747;28;20207;-48
2021/07/27 01:05:35;;;;;;;10.50;4.75;;;16.40;99.90;;;;;;5071739;28;20302;-47
2021/07/27 01:08:05;;;;;;;6.40;5.35;;;16.40;99.90;;;;;;5071525;28;20245;-47
2021/07/27 01:10:33;;;;;;;6.20;5.40;;;16.40;99.90;;;;;;5071605;28;20699;-45
2021/07/27 01:13:01;;;;;;;7.68;4.50;;;16.30;99.90;;;;;;5071822;28;20243;-46
2021/07/27 01:15:30;;;;;;;5.45;4.93;;;16.30;99.90;;;;;;5071705;28;20208;-47
2021/07/27 01:18:05;;;;;;;5.90;5.28;;;16.30;99.90;;;;;;5071546;28;20270;-46
2021/07/27 01:20:45;;;;;;;5.78;5.05;;;16.30;99.90;;;;;;5071488;28;20206;-51
2021/07/27 01:39:52;;;;;;;5.82;5.28;;;16.20;99.90;;;;;;5071363;28;20203;-47
2021/07/27 01:42:20;;;;;;;7.32;5.55;;;16.20;99.90;;;;;;5071340;28;20260;-47
2021/07/27 01:44:48;;;;;;;7.18;5.15;;;16.10;99.90;;;;;;5071425;28;20368;-46
2021/07/27 01:47:17;;;;;;;7.10;5.97;;;16.10;99.90;;;;;;5071259;28;20636;-46
2021/07/27 01:49:46;;;;;;;9.60;5.93;;;16.10;99.90;;;;;;5071128;28;20712;-48
2021/07/27 01:52:16;;;;;;;7.63;5.28;;;16.10;99.90;;;;;;5071532;28;20214;-49
2021/07/27 01:54:55;;;;;;;6.00;5.50;;;16.10;99.90;;;;;;5071819;28;20215;-47
2021/07/27 01:57:28;;;;;;;8.95;5.85;;;16.10;99.90;;;;;;5071445;28;20291;-45
2021/07/27 02:00:08;;;;;;;5.65;5.05;;;16.10;99.90;;;;;;5071277;28;20260;-48
2021/07/27 02:02:36;;;;;;;6.57;5.38;;;16.10;99.90;;;;;;5071361;28;20211;-46
2021/07/27 02:05:06;;;;;;;7.63;5.10;;;16.10;99.90;;;;;;5074283;28;20565;-46
2021/07/27 02:07:36;;;;;;;6.90;5.22;;;16.10;99.90;;;;;;5074831;28;20318;-47
2021/07/27 02:10:11;;;;;;;7.50;5.68;;;16.00;99.90;;;;;;5074600;28;20666;-52
2021/07/27 02:12:48;;;;;;;6.22;4.95;;;16.00;99.90;;;;;;5074252;28;20731;-47
2021/07/27 02:15:19;;;;;;;7.57;5.45;;;16.00;99.90;;;;;;5074636;28;20211;-45
2021/07/27 02:17:47;;;;;;;10.25;6.15;;;16.00;99.90;;;;;;5074547;28;20326;-47
2021/07/27 02:20:16;;;;;;;8.15;5.15;;;16.00;99.90;;;;;;5074642;28;20207;-49
2021/07/27 02:22:44;;;;;;;6.15;5.55;;;16.00;99.90;;;;;;5074625;28;20218;-46
2021/07/27 02:25:14;;;;;;;6.35;5.57;;;16.00;99.90;;;;;;5074511;28;20217;-48
2021/07/27 02:27:42;;;;;;;8.95;5.30;;;16.00;99.90;;;;;;5074330;28;20322;-47
2021/07/27 02:30:10;;;;;;;9.50;5.75;;;16.00;99.90;;;;;;5074603;28;20298;-47
2021/07/27 02:32:38;;;;;;;6.82;6.05;;;16.00;99.90;;;;;;5074469;28;20215;-48
2021/07/27 02:35:08;;;;;;;6.10;5.50;;;16.00;99.90;;;;;;5074355;28;20567;-49
2021/07/27 02:37:37;;;;;;;11.40;5.88;;;16.00;99.90;;;;;;5074273;28;20207;-48
2021/07/27 02:40:06;;;;;;;8.75;5.65;;;16.00;99.90;;;;;;5074457;28;20250;-46
2021/07/27 02:42:36;;;;;;;6.80;6.05;;;16.00;99.90;;;;;;5074196;28;20437;-46
2021/07/27 02:45:05;;;;;;;12.40;6.00;;;16.00;99.90;;;;;;5074283;28;20215;-46
2021/07/27 02:47:34;;;;;;;12.52;6.03;;;15.90;99.90;;;;;;5074074;28;20223;-49
2021/07/27 02:50:02;;;;;;;8.52;5.72;;;15.90;99.90;;;;;;5073986;28;20766;-51
2021/07/27 02:52:32;;;;;;;8.00;6.85;;;15.90;99.90;;;;;;5074307;28;20290;-47
2021/07/27 02:55:01;;;;;;;6.93;6.32;;;15.90;99.90;;;;;;5074016;28;20600;-48
2021/07/27 02:57:29;;;;;;;10.25;6.47;;;15.80;99.90;;;;;;5074066;28;20364;-49
2021/07/27 03:00:00;;;;;;;7.32;5.88;;;15.80;99.90;;;;;;5073879;28;20204;-49
2021/07/27 03:02:31;;;;;;;8.52;6.03;;;15.80;99.90;;;;;;5073720;28;20632;-47
2021/07/27 03:04:58;;;;;;;7.57;5.90;;;15.80;99.90;;;;;;5073634;28;20231;-48
2021/07/27 03:07:35;;;;;;;11.18;5.95;;;15.80;99.90;;;;;;5073694;28;20234;-47
2021/07/27 03:10:18;;;;;;;7.35;6.18;;;15.80;99.90;;;;;;5073640;28;20249;-46
2021/07/27 03:12:46;;;;;;;6.65;5.90;;;15.80;99.90;;;;;;5073606;28;20218;-44
2021/07/27 03:15:16;;;;;;;7.35;5.55;;;15.80;99.90;;;;;;5072513;28;20302;-45
2021/07/27 03:17:44;;;;;;;5.78;5.28;;;15.80;99.90;;;;;;5073535;28;20244;-49
2021/07/27 03:20:15;;;;;;;8.52;6.35;;;15.80;99.90;;;;;;5073443;28;20235;-44
2021/07/27 03:22:44;;;;;;;6.40;5.22;;;15.80;99.90;;;;;;5073525;28;20226;-45
2021/07/27 03:25:15;;;;;;;5.78;5.13;;;15.70;99.90;;;;;;5073458;28;20211;-45
2021/07/27 03:27:44;;;;;;;6.90;6.03;;;15.70;99.90;;;;;;5073228;28;20672;-45
2021/07/27 03:30:12;;;;;;;7.63;5.05;;;15.70;99.90;;;;;;5073414;28;20204;-48
2021/07/27 03:32:42;;;;;;;6.15;5.53;;;15.70;99.90;;;;;;5073085;28;20211;-49
2021/07/27 03:35:12;;;;;;;8.45;5.45;;;15.60;99.90;;;;;;5073204;28;20211;-46
2021/07/27 03:37:39;;;;;;;9.77;5.60;;;15.60;99.90;;;;;;5073370;28;20207;-47
2021/07/27 03:40:08;;;;;;;8.85;6.25;;;15.60;99.90;;;;;;5073070;28;20294;-46
2021/07/27 03:42:36;;;;;;;7.95;7.10;;;15.60;99.90;;;;;;5073046;28;20214;-51
2021/07/27 03:45:05;;;;;;;9.80;5.38;;;15.60;99.90;;;;;;5073250;28;20298;-49
2021/07/27 03:47:33;;;;;;;7.60;5.72;;;15.60;99.90;;;;;;5073096;28;20290;-52
2021/07/27 03:50:02;;;;;;;13.07;5.65;;;15.60;99.90;;;;;;5073045;28;20214;-46
2021/07/27 03:52:30;;;;;;;6.53;5.47;;;15.60;99.90;;;;;;5072599;28;20208;-48
2021/07/27 03:54:58;;;;;;;7.13;5.57;;;15.60;99.90;;;;;;5072941;28;20297;-46
2021/07/27 03:57:26;;;;;;;8.98;6.03;;;15.60;99.90;;;;;;5072844;28;20295;-50
2021/07/27 03:59:55;;;;;;;6.70;5.45;;;15.70;99.90;;;;;;5072859;28;20211;-47
2021/07/27 04:02:23;;;;;;;7.95;6.13;;;15.70;99.90;;;;;;5072385;28;20208;-50
2021/07/27 04:04:51;;;;;;;5.63;5.03;;;15.70;99.90;;;;;;5072482;28;20261;-48
2021/07/27 04:07:21;;;;;;;10.43;5.68;;;15.70;99.90;;;;;;5072292;28;20215;-46
2021/07/27 04:09:49;;;;;;;8.25;7.35;;;15.70;99.90;;;;;;5072364;28;20839;-48
2021/07/27 04:12:17;;;;;;;7.07;6.38;;;15.70;99.90;;;;;;5072375;28;20742;-50
2021/07/27 04:14:45;;;;;;;8.57;5.28;;;15.70;99.90;;;;;;5072405;28;20724;-46
2021/07/27 04:17:14;;;;;;;8.38;5.07;;;15.80;99.90;;;;;;5071865;28;20372;-48
2021/07/27 04:19:42;;;;;;;7.80;5.05;;;15.80;99.90;;;;;;5071619;28;20334;-53
2021/07/27 04:22:10;;;;;;;8.60;5.85;;;15.80;99.90;;;;;;5072218;28;20217;-48
2021/07/27 04:24:39;;;;;;;7.00;5.13;;;15.80;99.90;;;;;;5072330;28;20302;-47
2021/07/27 04:27:07;;;;;;;5.80;5.30;;;15.90;99.90;;;;;;5072030;28;20211;-47
2021/07/27 04:29:35;;;;;;;9.27;5.03;;;16.00;99.90;;;;;;5072048;28;20231;-46
2021/07/27 04:32:04;;;;;;;10.55;9.25;;;16.00;99.90;;;;;;5072224;28;20215;-48
2021/07/27 04:34:31;;;;;;;7.32;5.35;;;16.10;99.90;;;;;;5072546;28;20208;-45
2021/07/27 04:36:59;;;;;;;6.30;4.80;;;16.10;99.90;;;;;;5072455;28;20286;-48
2021/07/27 04:39:29;;;;;;;4.95;4.25;;;16.20;99.90;;;;;;5072212;28;20238;-46
2021/07/27 04:41:59;;;;;;;9.45;5.03;;;16.30;99.90;;;;;;5072191;28;20357;-47
2021/07/27 04:44:27;;;;;;;4.78;4.28;;;16.30;99.90;;;;;;5071939;28;20615;-46
2021/07/27 04:46:55;;;;;;;6.90;6.20;;;16.40;99.90;;;;;;5072022;28;20217;-48
2021/07/27 04:49:23;;;;;;;7.35;6.65;;;16.40;99.90;;;;;;5071626;28;20231;-50
2021/07/27 04:51:51;;;;;;;8.38;6.18;;;16.50;99.90;;;;;;5072200;28;20211;-50
2021/07/27 04:54:27;;;;;;;6.22;5.40;;;16.50;99.90;;;;;;5072007;28;20294;-48
2021/07/27 04:57:01;;;;;;;6.88;6.05;;;16.50;99.90;;;;;;5071957;28;20309;-50
2021/07/27 04:59:32;;;;;;;7.47;6.47;;;16.50;99.90;;;;;;5071867;28;20301;-48
2021/07/27 05:02:00;;;;;;;7.85;6.88;;;16.60;99.90;;;;;;5071783;28;20239;-48
2021/07/27 05:04:29;;;;;;;7.00;6.40;;;16.60;99.90;;;;;;5071793;28;20216;-50
2021/07/27 05:06:58;;;;;;;9.45;7.55;;;16.70;99.90;;;;;;5071762;28;20280;-46
2021/07/27 05:09:27;;;;;;;6.10;5.32;;;16.80;99.90;;;;;;5071688;28;20322;-50
2021/07/27 05:11:56;;;;;;;8.52;5.00;;;16.90;99.90;;;;;;5071671;28;20752;-46
2021/07/27 05:14:26;;;;;;;8.70;5.45;;;17.00;99.90;;;;;;5071927;28;20207;-46
2021/07/27 05:16:54;;;;;;;8.27;5.70;;;17.10;99.90;;;;;;5071971;28;20211;-47
2021/07/27 05:19:22;;;;;;;6.00;5.38;;;17.10;99.90;;;;;;5071387;28;20231;-46
2021/07/27 05:21:54;;;;;;;7.47;5.40;;;17.10;99.90;;;;;;5071647;28;20443;-50
2021/07/27 05:24:25;;;;;;;7.50;5.82;;;17.20;99.90;;;;;;5071418;28;20207;-46
2021/07/27 05:26:52;;;;;;;10.23;8.52;;;17.20;99.90;;;;;;5071761;28;20208;-46
2021/07/27 05:29:20;;;;;;;6.45;5.80;;;17.30;99.90;;;;;;5071631;28;20238;-51
2021/07/27 05:31:49;;;;;;;7.13;5.90;;;17.40;99.90;;;;;;5071640;28;20237;-46
2021/07/27 05:34:18;;;;;;;5.97;5.38;;;17.50;99.90;;;;;;5071381;28;20242;-48
2021/07/27 05:36:46;;;;;;;6.30;5.70;;;17.70;99.90;;;;;;5071233;28;20303;-50
2021/07/27 05:39:14;;;;;;;7.82;5.88;;;17.80;99.90;;;;;;5073128;28;20298;-50
2021/07/27 05:41:42;;;;;;;6.05;5.38;;;17.90;99.90;;;;;;5075426;28;20290;-49
2021/07/27 05:44:10;;;;;;;8.38;6.00;;;18.00;99.90;;;;;;5075269;28;20258;-49
2021/07/27 05:46:38;;;;;;;11.25;5.60;;;18.10;99.90;;;;;;5075231;28;20214;-50
2021/07/27 05:49:10;;;;;;;6.60;5.93;;;18.20;99.90;;;;;;5075005;28;20273;-46
2021/07/27 05:51:39;;;;;;;8.00;6.20;;;18.30;99.90;;;;;;5075446;28;20234;-51
2021/07/27 05:54:08;;;;;;;6.93;6.07;;;18.50;99.90;;;;;;5075296;28;20207;-49
2021/07/27 05:56:35;;;;;;;7.95;5.72;;;18.60;99.90;;;;;;5075281;28;20231;-50
2021/07/27 05:59:03;;;;;;;7.38;5.90;;;18.70;99.90;;;;;;5075002;28;20214;-53
2021/07/27 06:01:31;;;;;;;21.02;5.72;;;18.80;99.90;;;;;;5074928;28;20552;-50
2021/07/27 06:04:00;;;;;;;9.13;6.13;;;18.90;99.90;;;;;;5074786;28;20289;-49
2021/07/27 06:06:32;;;;;;;6.82;6.15;;;19.00;99.90;;;;;;5075123;28;20211;-48
2021/07/27 06:09:02;;;;;;;6.88;5.75;;;19.10;99.90;;;;;;5074873;28;20310;-47
2021/07/27 06:11:30;;;;;;;5.80;5.20;;;19.10;99.90;;;;;;5074925;28;20249;-48
2021/07/27 06:14:00;;;;;;;6.43;5.45;;;19.10;99.90;;;;;;5074815;28;20209;-47
2021/07/27 06:16:28;;;;;;;7.75;6.97;;;19.20;99.90;;;;;;5074754;28;20325;-53
2021/07/27 06:18:56;;;;;;;6.60;5.88;;;19.30;99.90;;;;;;5074578;28;20337;-50
2021/07/27 06:21:24;;;;;;;6.40;5.80;;;19.40;99.90;;;;;;5074581;28;20608;-49
2021/07/27 06:23:53;;;;;;;7.15;6.45;;;19.50;99.90;;;;;;5074707;28;20298;-52
2021/07/27 06:26:21;;;;;;;8.52;7.65;;;19.50;99.90;;;;;;5074430;28;20246;-50
2021/07/27 06:28:49;;;;;;;9.43;5.72;;;19.60;99.90;;;;;;5074269;28;20663;-50
2021/07/27 06:31:17;;;;;;;5.75;5.22;;;19.70;99.90;;;;;;5074537;28;20290;-52
2021/07/27 06:33:46;;;;;;;6.45;5.25;;;19.70;99.90;;;;;;5074447;28;20211;-49
2021/07/27 06:36:16;;;;;;;7.20;5.70;;;19.70;99.90;;;;;;5074285;28;20238;-51
2021/07/27 06:38:44;;;;;;;6.03;5.38;;;19.80;99.90;;;;;;5074381;28;20615;-53
2021/07/27 06:41:14;;;;;;;8.35;7.57;;;19.90;99.90;;;;;;5074138;28;20287;-49
2021/07/27 06:43:42;;;;;;;6.85;5.95;;;19.90;99.90;;;;;;5074385;28;20291;-51
2021/07/27 06:46:11;;;;;;;6.07;5.35;;;19.90;99.90;;;;;;5074462;28;20212;-47
2021/07/27 06:48:39;;;;;;;7.55;6.85;;;20.00;99.90;;;;;;5074147;28;20620;-49
2021/07/27 06:51:11;;;;;;;5.68;5.00;;;20.10;99.90;;;;;;5073711;28;20231;-45
2021/07/27 06:53:40;;;;;;;5.60;5.10;;;20.20;99.90;;;;;;5073768;28;20253;-47
2021/07/27 06:56:09;;;;;;;5.85;5.25;;;20.20;99.90;;;;;;5073997;28;20675;-48
2021/07/27 06:58:40;;;;;;;7.65;5.40;;;20.20;99.90;;;;;;5074201;28;20317;-51
2021/07/27 07:01:09;;;;;;;5.70;5.07;;;20.30;99.90;;;;;;5074206;28;20237;-49
2021/07/27 07:03:39;;;;;;;6.45;5.25;;;20.40;99.90;;;;;;5074043;28;20203;-49
2021/07/27 07:06:07;;;;;;;6.63;5.32;;;20.50;99.90;;;;;;5073957;28;20452;-52
2021/07/27 07:08:35;;;;;;;9.20;5.28;;;20.60;99.90;;;;;;5073723;28;20306;-50
2021/07/27 07:11:04;;;;;;;5.97;5.38;;;20.70;99.90;;;;;;5073880;28;20230;-50
2021/07/27 07:13:33;;;;;;;6.25;5.55;;;20.80;99.90;;;;;;5073887;28;20215;-50
2021/07/27 07:16:07;;;;;;;5.80;5.30;;;20.90;99.90;;;;;;5073708;28;20214;-48
2021/07/27 07:18:36;;;;;;;5.95;4.90;;;20.90;99.90;;;;;;5073887;28;20268;-54
2021/07/27 07:21:05;;;;;;;5.00;4.60;;;20.90;99.90;;;;;;5073499;28;20207;-47
2021/07/27 07:23:33;;;;;;;8.10;6.38;;;21.00;99.90;;;;;;5073307;28;20211;-49
2021/07/27 07:26:04;;;;;;;6.07;5.50;;;21.10;99.90;;;;;;5073803;28;20235;-51
2021/07/27 07:28:32;;;;;;;5.57;5.07;;;21.10;99.90;;;;;;5073154;28;20253;-51
2021/07/27 07:31:01;;;;;;;5.80;5.25;;;21.20;99.90;;;;;;5073284;28;20793;-49
2021/07/27 07:33:29;;;;;;;6.18;5.45;;;21.20;99.90;;;;;;5073119;28;20306;-49
2021/07/27 07:35:57;;;;;;;8.68;6.25;;;21.20;99.90;;;;;;5073561;28;20642;-53
2021/07/27 07:38:25;;;;;;;6.43;4.85;;;21.30;99.90;;;;;;5073306;28;20215;-49
2021/07/27 07:40:53;;;;;;;6.00;5.50;;;21.40;99.90;;;;;;5073178;28;20294;-49
2021/07/27 07:43:21;;;;;;;6.60;4.78;;;21.50;99.90;;;;;;5073363;28;20740;-48
2021/07/27 07:45:49;;;;;;;5.30;4.88;;;21.50;99.90;;;;;;5073007;28;20697;-50
2021/07/27 07:48:20;;;;;;;5.78;5.28;;;21.60;99.90;;;;;;5073281;28;20225;-48
2021/07/27 07:50:48;;;;;;;8.15;7.35;;;21.70;99.90;;;;;;5072911;28;20326;-48
2021/07/27 07:53:15;;;;;;;7.05;5.65;;;21.60;99.90;;;;;;5073121;28;20249;-49
2021/07/27 07:55:43;;;;;;;5.30;4.80;;;21.70;99.90;;;;;;5072793;28;20234;-50
2021/07/27 07:58:11;;;;;;;5.13;4.63;;;21.80;99.90;;;;;;5073019;28;20210;-50
2021/07/27 08:00:40;;;;;;;5.85;5.28;;;21.90;99.90;;;;;;5072783;28;20211;-50
2021/07/27 08:03:08;;;;;;;6.47;5.88;;;22.00;99.90;;;;;;5072535;28;20570;-49
2021/07/27 08:05:37;;;;;;;6.10;5.50;;;22.10;99.90;;;;;;5072772;28;20626;-49
2021/07/27 08:08:06;;;;;;;6.95;5.35;;;22.20;99.90;;;;;;5072786;28;20211;-50
2021/07/27 08:10:34;;;;;;;5.60;5.10;;;22.30;99.90;;;;;;5072620;28;20355;-48
2021/07/27 08:13:02;;;;;;;6.07;5.57;;;22.40;99.90;;;;;;5072567;28;20211;-50
2021/07/27 08:15:30;;;;;;;6.97;4.82;;;22.40;99.90;;;;;;5072733;28;20309;-51
2021/07/27 08:17:58;;;;;;;10.50;5.53;;;22.50;99.90;;;;;;5072542;28;20281;-53
2021/07/27 08:20:29;;;;;;;10.57;9.57;;;22.60;99.90;;;;;;5072376;28;20239;-51
2021/07/27 08:22:59;;;;;;;6.38;5.78;;;22.80;99.90;;;;;;5072557;28;20218;-51
2021/07/27 08:25:27;;;;;;;6.82;5.50;;;23.00;99.90;;;;;;5072268;28;20371;-50
2021/07/27 08:27:55;;;;;;;7.53;5.00;;;23.10;99.90;;;;;;5072282;28;20642;-47
2021/07/27 08:30:24;;;;;;;6.78;5.63;;;23.20;99.90;;;;;;5072305;28;20678;-49
2021/07/27 08:32:53;;;;;;;5.03;4.55;;;23.20;99.90;;;;;;5072490;28;20250;-47
2021/07/27 08:35:22;;;;;;;5.97;5.28;;;23.20;99.90;;;;;;5072283;28;20204;-51
2021/07/27 08:37:51;;;;;;;6.03;5.40;;;23.30;99.90;;;;;;5072220;28;20234;-49
2021/07/27 08:40:22;;;;;;;6.68;6.00;;;23.50;99.90;;;;;;5072167;28;20262;-50
2021/07/27 08:42:51;;;;;;;5.13;4.63;;;23.60;99.90;;;;;;5072403;28;20207;-52
2021/07/27 08:45:19;;;;;;;5.95;4.82;;;23.60;99.90;;;;;;5072242;28;20239;-50
2021/07/27 08:47:48;;;;;;;5.55;5.05;;;23.60;99.90;;;;;;5072136;28;20600;-51
2021/07/27 08:50:17;;;;;;;5.43;4.90;;;23.50;99.90;;;;;;5071875;28;20247;-49
2021/07/27 08:52:45;;;;;;;5.18;4.68;;;23.60;99.90;;;;;;5072050;28;20221;-50
2021/07/27 08:55:14;;;;;;;6.35;4.70;;;23.60;99.90;;;;;;5072007;28;20247;-49
2021/07/27 08:57:55;;;;;;;5.47;4.57;;;23.60;99.90;;;;;;5072212;28;20289;-49
2021/07/27 09:00:23;;;;;;;5.20;4.80;;;23.70;99.90;;;;;;5072037;28;20214;-50
2021/07/27 09:02:52;;;;;;;5.65;5.15;;;23.80;99.90;;;;;;5071863;28;20713;-49
2021/07/27 09:05:20;;;;;;;4.78;4.38;;;23.80;99.90;;;;;;5072115;28;20196;-52
2021/07/27 09:07:48;;;;;;;4.47;4.07;;;23.80;99.90;;;;;;5072119;28;20582;-52
2021/07/27 09:10:18;;;;;;;5.18;4.38;;;23.90;99.90;;;;;;5071858;28;20302;-49
2021/07/27 09:12:58;;;;;;;4.72;4.22;;;24.00;99.90;;;;;;5072036;28;20294;-52
2021/07/27 09:15:27;;;;;;;6.50;5.18;;;24.30;99.90;;;;;;5075759;28;20210;-51
2021/07/27 09:17:57;;;;;;;6.97;6.38;;;24.50;99.90;;;;;;5075899;28;20334;-52
2021/07/27 09:20:30;;;;;;;5.13;4.72;;;24.70;99.90;;;;;;5076155;28;20211;-50
2021/07/27 09:22:59;;;;;;;5.75;5.25;;;24.90;99.50;;;;;;5076126;28;20215;-52
2021/07/27 09:25:29;;;;;;;6.32;5.05;;;24.90;99.20;;;;;;5075759;28;20218;-52
2021/07/27 09:28:16;;;;;;;5.68;4.85;;;24.90;98.90;;;;;;5075760;28;20246;-51
2021/07/27 09:30:46;;;;;;;6.55;5.20;;;25.00;97.80;;;;;;5075672;28;20285;-48
2021/07/27 09:33:16;;;;;;;5.50;4.72;;;25.00;98.20;;;;;;5075580;28;20211;-49
2021/07/27 09:35:45;;;;;;;7.60;5.28;;;24.90;98.20;;;;;;5075283;28;20217;-49
2021/07/27 09:38:14;;;;;;;5.00;4.60;;;24.90;98.10;;;;;;5075216;28;20356;-49
2021/07/27 09:40:52;;;;;;;5.10;4.60;;;24.90;98.10;;;;;;5075470;28;20311;-50
2021/07/27 09:43:41;;;;;;;4.35;4.05;;;25.00;97.90;;;;;;5075358;28;20594;-53
2021/07/27 09:46:09;;;;;;;5.72;4.65;;;25.00;97.80;;;;;;5075533;28;20303;-53
2021/07/27 09:48:41;;;;;;;5.55;5.10;;;25.00;97.60;;;;;;5075446;28;20302;-51
2021/07/27 09:51:10;;;;;;;6.65;5.30;;;25.10;97.60;;;;;;5075220;28;20245;-54
2021/07/27 09:53:40;;;;;;;5.28;4.85;;;25.20;97.70;;;;;;5075526;28;20215;-52
2021/07/27 09:56:12;;;;;;;5.45;4.95;;;25.20;97.80;;;;;;5075315;28;20207;-54
2021/07/27 09:58:41;;;;;;;6.28;5.40;;;25.40;97.80;;;;;;5075419;28;20239;-51
2021/07/27 10:01:12;;;;;;;6.95;5.20;;;25.50;97.60;;;;;;5075147;28;20208;-50
2021/07/27 10:03:48;;;;;;;5.85;5.18;;;25.70;97.20;;;;;;5075088;28;20211;-52
2021/07/27 10:06:25;;;;;;;6.22;5.43;;;25.90;96.80;;;;;;5075313;28;20246;-49
2021/07/27 10:08:57;;;;;;;5.53;5.03;;;26.10;96.30;;;;;;5074869;28;20277;-53
2021/07/27 10:11:36;;;;;;;6.22;5.72;;;26.00;96.20;;;;;;5074900;28;20258;-50
2021/07/27 10:14:10;;;;;;;6.75;6.15;;;25.90;96.20;;;;;;5074971;28;20207;-49
2021/07/27 10:16:39;;;;;;;7.05;6.30;;;26.00;96.30;;;;;;5074782;28;20662;-51
2021/07/27 10:19:15;;;;;;;5.45;5.00;;;26.00;96.10;;;;;;5074421;28;20724;-51
2021/07/27 10:21:44;;;;;;;6.68;5.18;;;26.20;95.70;;;;;;5074695;28;20631;-51
2021/07/27 10:24:14;;;;;;;7.45;5.30;;;26.30;95.50;;;;;;5074184;28;20231;-47
2021/07/27 10:26:42;;;;;;;6.25;4.97;;;26.50;94.90;;;;;;5074502;28;20254;-51
2021/07/27 10:29:12;;;;;;;6.13;4.72;;;26.90;94.20;;;;;;5074654;28;20720;-48
2021/07/27 10:31:42;;;;;;;5.07;4.57;;;27.20;93.30;;;;;;5074371;28;20581;-46
2021/07/27 10:34:11;;;;;;;6.53;4.68;;;27.40;92.80;;;;;;5074672;28;20247;-50
2021/07/27 10:36:40;;;;;;;5.22;4.45;;;27.50;92.30;;;;;;5074593;28;20608;-48
2021/07/27 10:39:13;;;;;;;5.38;4.88;;;27.60;91.80;;;;;;5074789;28;20211;-50
2021/07/27 10:41:43;;;;;;;6.63;6.13;;;27.60;91.40;;;;;;5074424;28;20203;-46
2021/07/27 10:44:15;;;;;;;6.05;5.55;;;27.70;91.10;;;;;;5074414;28;20365;-50
2021/07/27 10:46:44;;;;;;;4.70;4.35;;;27.80;90.70;;;;;;5074275;28;20701;-47
2021/07/27 10:49:20;;;;;;;6.43;4.75;;;27.90;90.40;;;;;;5074252;28;20238;-49
2021/07/27 10:51:48;;;;;;;4.82;4.43;;;27.90;90.00;;;;;;5074017;28;20262;-49
2021/07/27 10:54:18;;;;;;;4.82;4.43;;;27.80;89.50;;;;;;5074175;28;20333;-51
2021/07/27 10:56:59;;;;;;;5.25;4.80;;;27.60;89.50;;;;;;5074159;28;20303;-50
2021/07/27 10:59:31;;;;;;;5.45;4.13;;;27.50;89.60;;;;;;5073720;28;20211;-50
2021/07/27 11:01:59;;;;;;;4.18;3.88;;;27.30;89.70;;;;;;5074025;28;20211;-51
2021/07/27 11:04:29;;;;;;;4.63;4.20;;;27.30;89.50;;;;;;5073999;28;20603;-48
2021/07/27 11:07:13;;;;;;;6.05;4.80;;;27.30;89.10;;;;;;5073920;28;20208;-50
2021/07/27 11:09:52;;;;;;;5.05;4.55;;;27.40;89.20;;;;;;5073711;28;20296;-50
2021/07/27 11:12:30;;;;;;;4.43;4.13;;;27.40;89.50;;;;;;5073516;28;20270;-46
2021/07/27 11:15:07;;;;;;;5.28;4.78;;;27.40;89.60;;;;;;5073646;28;20207;-53
2021/07/27 11:17:36;;;;;;;4.65;4.25;;;27.40;89.70;;;;;;5073464;28;20297;-52
2021/07/27 11:20:05;;;;;;;5.78;4.45;;;27.40;89.70;;;;;;5073737;28;20203;-47
2021/07/27 11:22:33;;;;;;;5.03;4.60;;;27.30;90.00;;;;;;5073475;28;20294;-49
2021/07/27 11:25:02;;;;;;;5.65;4.80;;;27.30;90.00;;;;;;5073782;28;20211;-48
2021/07/27 11:27:32;;;;;;;4.30;4.00;;;27.20;89.80;;;;;;5073572;28;20207;-48
2021/07/27 11:30:01;;;;;;;3.95;3.65;;;27.10;89.60;;;;;;5073636;28;20208;-51
2021/07/27 11:32:42;;;;;;;6.60;4.30;;;27.10;89.00;;;;;;5073371;28;20234;-48
2021/07/27 11:35:11;;;;;;;5.72;4.32;;;27.10;88.00;;;;;;5073234;28;20299;-51
2021/07/27 11:37:40;;;;;;;6.00;4.35;;;27.00;88.00;;;;;;5072334;28;20650;-49
2021/07/27 11:40:22;;;;;;;4.15;3.75;;;26.90;87.70;;;;;;5073156;28;20303;-51
2021/07/27 11:43:00;;;;;;;3.42;3.13;;;26.90;86.90;;;;;;5073041;28;20253;-52
2021/07/27 11:45:28;;;;;;;4.60;4.20;;;26.90;86.40;;;;;;5072946;28;20702;-50
2021/07/27 11:47:57;;;;;;;3.78;3.47;;;27.00;87.00;;;;;;5073278;28;20298;-51
2021/07/27 11:50:30;;;;;;;6.75;5.32;;;27.00;85.80;;;;;;5073269;28;20301;-50
2021/07/27 11:52:59;;;;;;;3.78;3.47;;;27.10;85.60;;;;;;5072774;28;20254;-51
2021/07/27 11:55:31;;;;;;;4.40;4.00;;;27.20;85.80;;;;;;5072918;28;20211;-50
2021/07/27 11:57:59;;;;;;;5.97;3.85;;;27.20;85.00;;;;;;5072767;28;20246;-49
2021/07/27 12:00:28;;;;;;;4.05;3.67;;;27.00;85.40;;;;;;5072843;28;20216;-48
2021/07/27 12:02:58;;;;;;;4.43;4.03;;;27.00;86.00;;;;;;5072734;28;20705;-50
2021/07/27 12:05:26;;;;;;;4.60;4.20;;;27.10;86.50;;;;;;5072805;28;20239;-49
2021/07/27 12:07:54;;;;;;;4.45;4.07;;;27.20;86.10;;;;;;5072509;28;20290;-52
2021/07/27 12:10:22;;;;;;;4.57;3.42;;;27.30;86.60;;;;;;5072916;28;20204;-48
2021/07/27 12:12:50;;;;;;;3.67;3.38;;;27.30;85.90;;;;;;5072251;28;20266;-50
2021/07/27 12:15:18;;;;;;;3.80;3.50;;;27.30;85.50;;;;;;5072578;28;20302;-47
2021/07/27 12:17:46;;;;;;;3.75;3.45;;;27.20;85.20;;;;;;5072300;28;20333;-51
2021/07/27 12:20:15;;;;;;;4.35;3.60;;;27.20;85.30;;;;;;5072364;28;20226;-46
2021/07/27 12:22:43;;;;;;;3.58;3.17;;;27.30;85.30;;;;;;5072357;28;20213;-46
2021/07/27 12:25:13;;;;;;;3.47;3.17;;;27.70;84.70;;;;;;5072189;28;20265;-47
2021/07/27 12:27:42;;;;;;;3.95;3.65;;;28.10;83.60;;;;;;5072278;28;20714;-48
2021/07/27 12:30:11;;;;;;;5.38;3.85;;;28.30;82.50;;;;;;5072325;28;20239;-47
2021/07/27 12:32:39;;;;;;;4.50;4.10;;;28.50;81.70;;;;;;5072191;28;20718;-51
2021/07/27 12:35:10;;;;;;;7.13;4.88;;;28.60;81.20;;;;;;5072218;28;20211;-48
2021/07/27 12:37:39;;;;;;;4.72;3.65;;;28.80;80.90;;;;;;5071995;28;20246;-47
2021/07/27 12:40:08;;;;;;;4.32;3.95;;;29.00;80.10;;;;;;5071998;28;20741;-45
2021/07/27 12:42:36;;;;;;;13.63;5.10;;;29.00;80.20;;;;;;5072245;28;20211;-47
2021/07/27 12:45:05;;;;;;;3.72;3.10;;;29.00;79.80;;;;;;5072098;28;20705;-50
2021/07/27 12:47:36;;;;;;;3.75;3.45;;;29.10;79.50;;;;;;5072018;28;20246;-50
2021/07/27 12:50:04;;;;;;;4.72;3.90;;;29.10;79.40;;;;;;5071944;28;20321;-51
2021/07/27 12:52:32;;;;;;;6.68;3.75;;;29.10;79.00;;;;;;5072100;28;20280;-48
2021/07/27 12:55:03;;;;;;;4.22;3.85;;;29.10;78.80;;;;;;5072184;28;20218;-49
2021/07/27 12:57:32;;;;;;;6.63;4.40;;;29.20;78.70;;;;;;5071969;28;20252;-50
2021/07/27 13:00:02;;;;;;;4.97;3.70;;;29.30;78.30;;;;;;5071878;28;20207;-47
2021/07/27 13:02:30;;;;;;;5.05;3.90;;;29.30;77.80;;;;;;5071871;28;20208;-51
2021/07/27 13:04:59;;;;;;;4.35;3.45;;;29.30;77.70;;;;;;5072104;28;20264;-51
2021/07/27 13:07:27;;;;;;;4.07;3.75;;;29.20;78.40;;;;;;5071674;28;20627;-47
2021/07/27 13:09:56;;;;;;;5.53;4.03;;;29.10;78.50;;;;;;5071784;28;20217;-47
2021/07/27 13:12:26;;;;;;;4.53;4.13;;;29.10;78.40;;;;;;5071774;28;20215;-51
2021/07/27 13:14:56;;;;;;;5.50;4.10;;;29.10;78.20;;;;;;5071624;28;20637;-52